LF2556 weather

Base ULM de Fontaine les Clerval
Franche-Comté, France

Public forecast

Using degrees Celsius for public forecast. Weather courtesy of forecast.io.

METAR (pilot weather report)

Closest report is Luxeuil-Saint-Sauveur (BA 116) Air Base, 22.1 nm (40.9 km) N. Retrieved 2019/07/20 09:30 UTC (0 seconds ago):

LFSX 200930Z AUTO 23014KT CAVOK 27/12 Q1015

TAF (pilot weather forecast)

Closest forecast is Luxeuil-Saint-Sauveur (BA 116) Air Base, 22.1 nm (40.9 km) N. Retrieved 2019/07/20 09:00 UTC (5 minutes ago):

TAF LFSX 200800Z 2009/2109 22007KT CAVOK BECMG 2009/2011 SCT070TCU TEMPO 2015/2105 4000 SHRA BKN060TCU PROB30 TEMPO 2019/2103 23015G25KT 3000 -TSRA SCT040CB PROB30 TEMPO 2103/2105 4000 BR